createdAt,value
2022-08-25T00:02:00.101Z,100930.02
2022-08-25T00:04:31.010Z,100929.98
2022-08-25T00:07:03.948Z,100926.52
2022-08-25T00:09:33.914Z,100930.30
2022-08-25T00:12:02.905Z,100926.23
2022-08-25T00:14:36.307Z,100929.89
2022-08-25T00:17:06.125Z,100928.06
2022-08-25T00:19:37.006Z,100926.82
2022-08-25T00:22:08.129Z,100924.16
2022-08-25T00:24:36.785Z,100920.63
2022-08-25T00:27:06.084Z,100920.27
2022-08-25T00:29:34.732Z,100911.66
2022-08-25T00:32:03.334Z,100909.31
2022-08-25T00:34:36.072Z,100911.66
2022-08-25T00:37:07.381Z,100913.23
2022-08-25T00:39:36.394Z,100909.45
2022-08-25T00:42:06.906Z,100911.03
2022-08-25T00:44:44.534Z,100906.62
2022-08-25T00:47:13.262Z,100907.29
2022-08-25T00:49:59.591Z,100904.55
2022-08-25T00:52:42.931Z,100902.83
2022-08-25T00:55:13.023Z,100906.65
2022-08-25T00:57:46.131Z,100911.73
2022-08-25T01:00:24.851Z,100895.75
2022-08-25T01:02:53.753Z,100903.94
2022-08-25T01:05:22.650Z,100903.73
2022-08-25T01:07:52.843Z,100903.64
2022-08-25T01:10:28.930Z,100905.39
2022-08-25T01:13:03.113Z,100905.45
2022-08-25T01:15:35.278Z,100910.23
2022-08-25T01:18:07.811Z,100911.35
2022-08-25T01:20:35.837Z,100896.68
2022-08-25T01:23:04.422Z,100905.06
2022-08-25T01:26:01.785Z,100905.31
2022-08-25T01:28:29.949Z,100904.95
2022-08-25T01:30:58.006Z,100899.16
2022-08-25T01:33:26.136Z,100898.57
2022-08-25T01:35:54.553Z,100895.95
2022-08-25T01:38:23.452Z,100895.40
2022-08-25T01:40:51.570Z,100896.56
2022-08-25T01:43:37.195Z,100889.69
2022-08-25T01:46:06.893Z,100893.92
2022-08-25T01:48:35.198Z,100895.64
2022-08-25T01:51:03.167Z,100901.91
2022-08-25T01:53:33.685Z,100896.08
2022-08-25T01:56:12.101Z,100895.10
2022-08-25T01:58:44.006Z,100895.73
2022-08-25T02:01:16.355Z,100895.38
2022-08-25T02:03:47.193Z,100893.84
2022-08-25T02:06:19.649Z,100893.45
2022-08-25T02:08:54.366Z,100892.64
2022-08-25T02:11:24.402Z,100878.20
2022-08-25T02:13:52.937Z,100891.77
2022-08-25T02:16:29.609Z,100890.90
2022-08-25T02:18:57.650Z,100886.62
2022-08-25T02:21:25.834Z,100885.52
2022-08-25T02:23:54.902Z,100885.89
2022-08-25T02:26:23.062Z,100888.08
2022-08-25T02:28:52.269Z,100887.98
2022-08-25T02:31:22.753Z,100886.73
2022-08-25T02:33:52.133Z,100886.75
2022-08-25T02:36:20.453Z,100888.38
2022-08-25T02:38:48.765Z,100870.95
2022-08-25T02:41:31.412Z,100882.48
2022-08-25T02:44:01.988Z,100861.77
2022-08-25T02:46:31.164Z,100878.64
2022-08-25T02:48:59.460Z,100877.88
2022-08-25T02:51:30.287Z,100877.04
2022-08-25T02:54:02.185Z,100878.00
2022-08-25T02:56:31.635Z,100882.45
2022-08-25T02:59:00.883Z,100882.25
2022-08-25T03:01:30.793Z,100881.58
2022-08-25T03:03:59.709Z,100884.52
2022-08-25T03:06:28.659Z,100886.54
2022-08-25T03:08:57.083Z,100878.48
2022-08-25T03:11:26.801Z,100874.17
2022-08-25T03:13:56.611Z,100875.80
2022-08-25T03:16:27.803Z,100876.55
2022-08-25T03:18:57.033Z,100876.07
2022-08-25T03:21:26.945Z,100872.97
2022-08-25T03:23:55.452Z,100870.84
2022-08-25T03:26:42.242Z,100869.09
2022-08-25T03:29:10.690Z,100870.53
2022-08-25T03:31:39.140Z,100868.58
2022-08-25T03:34:07.142Z,100868.81
2022-08-25T03:36:35.043Z,100869.61
2022-08-25T03:39:04.290Z,100870.27
2022-08-25T03:41:33.087Z,100869.64
2022-08-25T03:44:04.227Z,100873.42
2022-08-25T03:46:35.545Z,100873.59
2022-08-25T03:49:05.342Z,100874.70
2022-08-25T03:51:36.444Z,100878.01
2022-08-25T03:54:05.329Z,100876.92
2022-08-25T03:56:33.431Z,100875.84
2022-08-25T03:59:01.404Z,100873.05
2022-08-25T04:01:30.467Z,100872.21
2022-08-25T04:03:58.419Z,100871.02
2022-08-25T04:06:26.455Z,100872.98
2022-08-25T04:08:54.473Z,100873.42
2022-08-25T04:11:23.501Z,100868.90
2022-08-25T04:13:53.385Z,100866.84
2022-08-25T04:16:24.534Z,100866.03
2022-08-25T04:18:55.225Z,100865.62
2022-08-25T04:21:24.220Z,100863.40
2022-08-25T04:23:53.944Z,100862.96
2022-08-25T04:26:32.457Z,100865.96
2022-08-25T04:29:01.913Z,100870.27
2022-08-25T04:31:30.855Z,100849.27
2022-08-25T04:34:02.713Z,100862.55
2022-08-25T04:36:31.230Z,100862.08
2022-08-25T04:39:00.022Z,100859.77
2022-08-25T04:41:30.324Z,100860.45
2022-08-25T04:44:00.671Z,100862.29
2022-08-25T04:46:31.778Z,100862.65
2022-08-25T04:49:01.135Z,100858.98
2022-08-25T04:51:50.846Z,100859.80
2022-08-25T04:54:22.138Z,100856.09
2022-08-25T04:56:54.445Z,100854.81
2022-08-25T04:59:30.076Z,100854.56
2022-08-25T05:02:03.295Z,100856.31
2022-08-25T05:04:33.403Z,100854.77
2022-08-25T05:07:02.497Z,100854.15
2022-08-25T05:09:32.502Z,100856.10
2022-08-25T05:12:03.143Z,100849.71
2022-08-25T05:14:32.901Z,100844.46
2022-08-25T05:17:02.202Z,100846.55
2022-08-25T05:19:31.153Z,100851.88
2022-08-25T05:21:59.691Z,100848.11
2022-08-25T05:24:28.303Z,100848.42
2022-08-25T05:26:57.462Z,100850.36
2022-08-25T05:29:25.999Z,100848.63
2022-08-25T05:31:54.449Z,100843.34
2022-08-25T05:34:22.395Z,100847.30
2022-08-25T05:36:51.409Z,100842.55
2022-08-25T05:39:19.489Z,100841.89
2022-08-25T05:41:47.512Z,100848.60
2022-08-25T05:44:19.059Z,100850.79
2022-08-25T05:46:49.560Z,100851.41
2022-08-25T05:49:17.543Z,100859.14
2022-08-25T05:51:45.396Z,100860.90
2022-08-25T05:54:13.438Z,100866.45
2022-08-25T05:56:45.615Z,100872.02
2022-08-25T05:59:13.860Z,100871.41
2022-08-25T06:02:01.039Z,100870.65
2022-08-25T06:04:29.492Z,100867.74
2022-08-25T06:06:57.350Z,100866.02
2022-08-25T06:09:25.409Z,100865.11
2022-08-25T06:11:55.206Z,100861.66
2022-08-25T06:14:24.695Z,100862.39
2022-08-25T06:16:53.115Z,100861.63
2022-08-25T06:19:23.724Z,100861.67
2022-08-25T06:21:58.590Z,100859.83
2022-08-25T06:24:28.159Z,100855.86
2022-08-25T06:26:57.553Z,100857.58
2022-08-25T06:29:26.453Z,100860.81
2022-08-25T06:31:54.484Z,100867.13
2022-08-25T06:34:24.281Z,100863.36
2022-08-25T06:36:53.017Z,100868.44
2022-08-25T06:39:24.191Z,100872.05
2022-08-25T06:41:56.853Z,100872.29
2022-08-25T06:44:27.909Z,100867.17
2022-08-25T06:46:56.186Z,100870.80
2022-08-25T06:49:28.739Z,100870.45
2022-08-25T06:51:59.273Z,100873.97
2022-08-25T06:54:27.143Z,100876.17
2022-08-25T06:56:55.220Z,100877.98
2022-08-25T06:59:23.351Z,100878.61
2022-08-25T07:01:51.447Z,100881.80
2022-08-25T07:04:21.133Z,100878.75
2022-08-25T07:06:49.152Z,100881.34
2022-08-25T07:09:17.226Z,100881.81
2022-08-25T07:11:46.813Z,100880.93
2022-08-25T07:14:16.781Z,100882.38
2022-08-25T07:16:49.387Z,100882.76
2022-08-25T07:19:21.115Z,100886.67
2022-08-25T07:21:52.136Z,100892.83
2022-08-25T07:24:21.026Z,100892.21
2022-08-25T07:26:50.244Z,100895.55
2022-08-25T07:29:32.813Z,100892.77
2022-08-25T07:32:03.022Z,100897.34
2022-08-25T07:34:52.261Z,100896.95
2022-08-25T07:40:21.795Z,100891.34
2022-08-25T07:42:53.533Z,100894.88
2022-08-25T07:45:30.478Z,100897.13
2022-08-25T07:48:12.152Z,100894.67
2022-08-25T07:50:45.440Z,100895.98
2022-08-25T07:53:15.105Z,100898.23
2022-08-25T07:55:45.136Z,100896.77
2022-08-25T07:58:15.834Z,100897.26
2022-08-25T08:00:48.477Z,100901.80
2022-08-25T08:03:42.209Z,100905.38
2022-08-25T08:06:10.695Z,100903.73
2022-08-25T08:08:43.961Z,100904.02
2022-08-25T08:11:21.150Z,100907.69
2022-08-25T08:13:52.468Z,100909.35
2022-08-25T08:16:23.124Z,100906.17
2022-08-25T08:18:52.719Z,100897.13
2022-08-25T08:21:24.057Z,100908.59
2022-08-25T08:23:58.064Z,100904.56
2022-08-25T08:26:48.336Z,100904.17
2022-08-25T08:29:16.656Z,100900.98
2022-08-25T08:31:48.323Z,100896.46
2022-08-25T08:34:16.692Z,100896.88
2022-08-25T08:36:45.221Z,100897.61
2022-08-25T08:39:13.751Z,100887.45
2022-08-25T08:42:19.082Z,100902.59
2022-08-25T08:45:25.219Z,100897.95
2022-08-25T08:48:03.876Z,100902.05
2022-08-25T08:51:17.922Z,100900.80
2022-08-25T08:54:00.769Z,100905.25
2022-08-25T08:56:34.795Z,100906.48
2022-08-25T08:59:13.370Z,100902.16
2022-08-25T09:01:53.996Z,100900.11
2022-08-25T09:04:40.778Z,100896.82
2022-08-25T09:07:16.678Z,100896.81
2022-08-25T09:09:45.802Z,100893.77
2022-08-25T09:12:34.343Z,100858.80
2022-08-25T09:15:12.535Z,100885.73
2022-08-25T09:18:05.616Z,100883.50
2022-08-25T09:20:40.988Z,100880.38
2022-08-25T09:23:20.142Z,100882.69
2022-08-25T09:26:14.608Z,100878.15
2022-08-25T09:28:51.962Z,100877.95
2022-08-25T09:31:27.604Z,100881.77
2022-08-25T09:34:03.518Z,100875.25
2022-08-25T09:36:43.095Z,100844.09
2022-08-25T09:42:06.424Z,100879.31
2022-08-25T09:44:47.961Z,100877.51
2022-08-25T09:47:35.827Z,100871.52
2022-08-25T09:50:25.554Z,100873.73
2022-08-25T09:53:13.706Z,100869.25
2022-08-25T09:56:06.064Z,100860.69
2022-08-25T09:58:34.127Z,100858.89
2022-08-25T10:01:04.853Z,100861.14
2022-08-25T10:03:36.531Z,100856.29
2022-08-25T10:06:13.653Z,100855.16
2022-08-25T10:08:56.463Z,100848.36
2022-08-25T10:11:42.359Z,100846.00
2022-08-25T10:14:26.696Z,100844.88
2022-08-25T10:17:15.421Z,100838.01
2022-08-25T10:19:44.403Z,100834.78
2022-08-25T10:22:24.465Z,100832.66
2022-08-25T10:24:53.112Z,100831.31
2022-08-25T10:27:39.533Z,100824.80
2022-08-25T10:30:17.462Z,100824.79
2022-08-25T10:33:08.462Z,100826.13
2022-08-25T10:35:47.266Z,100817.04
2022-08-25T10:38:43.292Z,100818.95
2022-08-25T10:41:29.661Z,100812.27
2022-08-25T10:44:32.494Z,100810.45
2022-08-25T10:47:22.189Z,100801.11
2022-08-25T10:49:56.512Z,100794.55
2022-08-25T10:52:39.382Z,100791.57
2022-08-25T10:55:18.851Z,100789.48
2022-08-25T10:57:52.858Z,100780.69
2022-08-25T11:00:24.866Z,100784.79
2022-08-25T11:03:06.529Z,100780.59
2022-08-25T11:05:40.348Z,100772.64
2022-08-25T11:08:27.095Z,100759.39
2022-08-25T11:11:04.042Z,100762.27
2022-08-25T11:13:47.821Z,100760.42
2022-08-25T11:16:40.588Z,100761.80
2022-08-25T11:19:17.846Z,100755.89
2022-08-25T11:21:54.291Z,100751.05
2022-08-25T11:24:48.523Z,100749.71
2022-08-25T11:27:26.483Z,100748.26
2022-08-25T11:30:22.063Z,100716.02
2022-08-25T11:32:55.257Z,100739.73
2022-08-25T11:35:37.891Z,100740.34
2022-08-25T11:38:33.802Z,100739.66
2022-08-25T11:41:18.331Z,100737.08
2022-08-25T11:44:10.864Z,100740.48
2022-08-25T11:46:45.753Z,100732.98
2022-08-25T11:49:16.515Z,100730.09
2022-08-25T11:51:48.265Z,100728.83
2022-08-25T11:54:39.513Z,100729.58
2022-08-25T11:57:22.439Z,100730.02
2022-08-25T11:59:50.501Z,100730.81
2022-08-25T12:02:40.727Z,100731.98
2022-08-25T12:05:20.129Z,100733.67
2022-08-25T12:08:08.590Z,100728.04
2022-08-25T12:10:59.030Z,100724.21
2022-08-25T12:13:44.269Z,100729.23
2022-08-25T12:16:37.228Z,100730.06
2022-08-25T12:19:26.755Z,100730.58
2022-08-25T12:21:58.892Z,100733.27
2022-08-25T12:24:49.833Z,100733.30
2022-08-25T12:27:24.934Z,100729.61
2022-08-25T12:30:27.616Z,100716.41
2022-08-25T12:33:21.270Z,100723.77
2022-08-25T12:36:11.173Z,100719.98
2022-08-25T12:38:52.086Z,100718.80
2022-08-25T12:41:24.486Z,100713.66
2022-08-25T12:44:10.480Z,100711.01
2022-08-25T12:46:43.663Z,100715.04
2022-08-25T12:49:32.298Z,100715.38
2022-08-25T12:52:15.082Z,100711.55
2022-08-25T12:54:54.701Z,100716.08
2022-08-25T12:57:41.274Z,100709.73
2022-08-25T13:00:22.509Z,100702.96
2022-08-25T13:03:11.991Z,100697.50
2022-08-25T13:05:46.501Z,100697.77
2022-08-25T13:08:27.202Z,100698.64
2022-08-25T13:11:20.242Z,100689.49
2022-08-25T13:14:08.236Z,100692.46
2022-08-25T13:16:38.382Z,100692.58
2022-08-25T13:19:18.083Z,100687.39
2022-08-25T13:21:47.462Z,100686.37
2022-08-25T13:24:27.248Z,100686.05
2022-08-25T13:27:02.075Z,100688.88
2022-08-25T13:29:37.678Z,100684.37
2022-08-25T13:32:14.423Z,100684.28
2022-08-25T13:34:44.074Z,100685.20
2022-08-25T13:37:30.208Z,100665.05
2022-08-25T13:40:15.104Z,100677.41
2022-08-25T13:42:55.664Z,100675.57
2022-08-25T13:45:31.693Z,100676.69
2022-08-25T13:47:59.876Z,100671.90
2022-08-25T13:50:28.695Z,100674.67
2022-08-25T13:53:22.887Z,100672.55
2022-08-25T13:56:01.665Z,100673.55
2022-08-25T13:58:45.043Z,100672.13
2022-08-25T14:01:47.713Z,100665.82
2022-08-25T14:04:32.509Z,100638.70
2022-08-25T14:07:22.631Z,100654.77
2022-08-25T14:09:57.314Z,100653.79
2022-08-25T14:12:44.702Z,100656.60
2022-08-25T14:15:22.212Z,100654.54
2022-08-25T14:18:05.009Z,100650.30
2022-08-25T14:20:36.018Z,100644.20
2022-08-25T14:23:18.746Z,100644.83
2022-08-25T14:25:49.605Z,100643.52
2022-08-25T14:28:23.639Z,100640.41
2022-08-25T14:30:56.446Z,100636.48
2022-08-25T14:33:29.164Z,100636.08
2022-08-25T14:36:00.151Z,100634.67
2022-08-25T14:38:28.185Z,100637.29
2022-08-25T14:40:59.239Z,100624.29
2022-08-25T14:43:31.583Z,100635.20
2022-08-25T14:46:10.057Z,100637.69
2022-08-25T14:48:47.086Z,100633.21
2022-08-25T14:51:17.297Z,100629.38
2022-08-25T14:53:45.275Z,100628.82
2022-08-25T14:56:14.243Z,100626.69
2022-08-25T14:58:50.838Z,100626.27
2022-08-25T15:01:26.467Z,100632.26
2022-08-25T15:04:06.045Z,100630.42
2022-08-25T15:06:36.518Z,100634.66
2022-08-25T15:09:12.990Z,100631.51
2022-08-25T15:11:45.006Z,100616.47
2022-08-25T15:14:16.014Z,100633.61
2022-08-25T15:16:51.597Z,100634.80
2022-08-25T15:19:23.700Z,100629.56
2022-08-25T15:21:52.556Z,100629.61
2022-08-25T15:24:22.913Z,100623.44
2022-08-25T15:29:30.394Z,100619.32
2022-08-25T15:32:00.456Z,100620.56
2022-08-25T15:34:54.598Z,100618.42
2022-08-25T15:37:22.605Z,100615.21
2022-08-25T15:39:50.800Z,100617.35
2022-08-25T15:42:19.575Z,100620.26
2022-08-25T15:44:53.073Z,100616.39
2022-08-25T15:47:24.215Z,100605.53
2022-08-25T15:50:04.107Z,100598.11
2022-08-25T15:52:46.188Z,100615.58
2022-08-25T15:55:16.595Z,100613.56
2022-08-25T15:57:44.712Z,100612.80
2022-08-25T16:00:13.533Z,100612.05
2022-08-25T16:02:46.231Z,100613.94
2022-08-25T16:05:16.377Z,100611.87
2022-08-25T16:07:46.261Z,100610.75
2022-08-25T16:10:20.833Z,100616.09
2022-08-25T16:12:49.960Z,100611.33
2022-08-25T16:15:17.881Z,100609.79
2022-08-25T16:17:52.024Z,100608.86
2022-08-25T16:20:21.032Z,100608.05
2022-08-25T16:22:51.256Z,100609.41
2022-08-25T16:25:19.743Z,100605.21
2022-08-25T16:27:48.770Z,100602.59
2022-08-25T16:30:17.791Z,100602.28
2022-08-25T16:32:47.051Z,100602.08
2022-08-25T16:35:16.540Z,100598.30
2022-08-25T16:37:44.503Z,100601.90
2022-08-25T16:40:14.729Z,100601.59
2022-08-25T16:42:42.969Z,100604.70
2022-08-25T16:45:11.897Z,100605.85
2022-08-25T16:47:40.069Z,100605.73
2022-08-25T16:50:11.436Z,100608.35
2022-08-25T16:52:59.341Z,100609.83
2022-08-25T16:55:39.494Z,100610.20
2022-08-25T16:58:12.670Z,100612.95
2022-08-25T17:00:44.672Z,100612.58
2022-08-25T17:03:13.374Z,100614.67
2022-08-25T17:05:42.896Z,100611.30
2022-08-25T17:08:30.768Z,100613.61
2022-08-25T17:11:18.298Z,100617.02
2022-08-25T17:13:49.854Z,100619.12
2022-08-25T17:16:21.203Z,100602.46
2022-08-25T17:18:49.269Z,100616.45
2022-08-25T17:21:24.550Z,100616.24
2022-08-25T17:23:55.555Z,100622.13
2022-08-25T17:26:27.807Z,100620.48
2022-08-25T17:28:59.182Z,100621.42
2022-08-25T17:31:29.900Z,100611.13
2022-08-25T17:33:58.985Z,100624.54
2022-08-25T17:36:27.964Z,100628.70
2022-08-25T17:38:57.045Z,100632.67
2022-08-25T17:41:26.119Z,100641.48
2022-08-25T17:43:53.953Z,100641.48
2022-08-25T17:46:22.047Z,100629.70
2022-08-25T17:48:50.178Z,100647.12
2022-08-25T17:51:18.370Z,100648.52
2022-08-25T17:53:46.986Z,100656.55
2022-08-25T17:56:18.645Z,100650.17
2022-08-25T17:58:47.531Z,100659.79
2022-08-25T18:01:22.401Z,100659.20
2022-08-25T18:03:51.534Z,100657.77
2022-08-25T18:06:23.241Z,100656.33
2022-08-25T18:08:56.333Z,100657.41
2022-08-25T18:11:28.897Z,100658.50
2022-08-25T18:13:58.515Z,100658.14
2022-08-25T18:16:28.459Z,100657.14
2022-08-25T18:18:57.249Z,100663.71
2022-08-25T18:21:30.729Z,100657.46
2022-08-25T18:23:59.226Z,100654.13
2022-08-25T18:26:27.918Z,100655.13
2022-08-25T18:28:56.402Z,100651.59
2022-08-25T18:31:25.302Z,100654.04
2022-08-25T18:33:53.342Z,100659.84
2022-08-25T18:36:21.389Z,100661.08
2022-08-25T18:39:09.550Z,100663.30
2022-08-25T18:41:40.427Z,100667.73
2022-08-25T18:44:10.722Z,100672.30
2022-08-25T18:46:40.592Z,100670.31
2022-08-25T18:49:08.954Z,100671.06
2022-08-25T18:51:37.531Z,100675.73
2022-08-25T18:54:06.046Z,100681.42
2022-08-25T18:56:35.001Z,100679.73
2022-08-25T18:59:04.578Z,100681.10
2022-08-25T19:01:36.038Z,100678.02
2022-08-25T19:04:05.070Z,100683.05
2022-08-25T19:06:33.247Z,100680.70
2022-08-25T19:09:01.102Z,100680.54
2022-08-25T19:11:29.025Z,100680.15
2022-08-25T19:13:58.283Z,100680.27
2022-08-25T19:16:36.451Z,100679.29
2022-08-25T19:19:07.115Z,100677.98
2022-08-25T19:21:35.558Z,100679.90
2022-08-25T19:24:04.820Z,100676.39
2022-08-25T19:26:34.603Z,100663.89
2022-08-25T19:29:11.506Z,100622.80
2022-08-25T19:31:41.356Z,100668.55
2022-08-25T19:34:13.554Z,100674.25
2022-08-25T19:36:44.186Z,100670.64
2022-08-25T19:39:13.890Z,100663.77
2022-08-25T19:41:45.986Z,100667.51
2022-08-25T19:44:14.264Z,100667.41
2022-08-25T19:46:44.905Z,100661.47
2022-08-25T19:49:17.425Z,100660.38
2022-08-25T19:51:51.108Z,100661.45
2022-08-25T19:54:26.890Z,100659.82
2022-08-25T19:56:55.889Z,100662.13
2022-08-25T19:59:40.383Z,100665.86
2022-08-25T20:02:29.573Z,100666.41
2022-08-25T20:05:02.248Z,100668.83
2022-08-25T20:07:31.437Z,100654.10
2022-08-25T20:10:00.409Z,100666.88
2022-08-25T20:12:29.110Z,100666.52
2022-08-25T20:14:57.922Z,100660.46
2022-08-25T20:17:28.463Z,100664.27
2022-08-25T20:20:02.231Z,100664.12
2022-08-25T20:22:34.464Z,100664.13
2022-08-25T20:25:13.690Z,100659.86
2022-08-25T20:27:45.983Z,100658.61
2022-08-25T20:30:27.346Z,100660.88
2022-08-25T20:32:57.370Z,100664.31
2022-08-25T20:35:27.310Z,100663.45
2022-08-25T20:37:57.316Z,100666.45
2022-08-25T20:40:28.177Z,100662.54
2022-08-25T20:43:02.950Z,100656.17
2022-08-25T20:45:32.046Z,100671.70
2022-08-25T20:48:00.485Z,100673.38
2022-08-25T20:50:28.900Z,100668.05
2022-08-25T20:52:58.837Z,100668.20
2022-08-25T20:55:29.468Z,100667.98
2022-08-25T20:58:00.943Z,100669.60
2022-08-25T21:00:28.858Z,100671.48
2022-08-25T21:02:57.225Z,100669.20
2022-08-25T21:05:25.430Z,100667.95
2022-08-25T21:07:54.423Z,100667.23
2022-08-25T21:10:22.794Z,100671.46
2022-08-25T21:12:53.506Z,100664.30
2022-08-25T21:15:21.595Z,100675.49
2022-08-25T21:17:54.677Z,100678.14
2022-08-25T21:20:24.250Z,100674.79
2022-08-25T21:22:53.222Z,100669.35
2022-08-25T21:25:23.655Z,100673.94
2022-08-25T21:27:52.994Z,100657.41
2022-08-25T21:30:21.336Z,100673.80
2022-08-25T21:32:53.582Z,100670.42
2022-08-25T21:35:23.346Z,100676.09
2022-08-25T21:37:53.380Z,100675.17
2022-08-25T21:40:23.347Z,100677.89
2022-08-25T21:42:52.575Z,100676.08
2022-08-25T21:45:21.767Z,100674.44
2022-08-25T21:47:51.995Z,100673.30
2022-08-25T21:50:20.919Z,100673.92
2022-08-25T21:52:48.819Z,100669.96
2022-08-25T21:55:24.104Z,100671.01
2022-08-25T21:57:52.840Z,100670.48
2022-08-25T22:00:23.587Z,100670.95
2022-08-25T22:02:51.878Z,100672.46
2022-08-25T22:05:20.107Z,100673.70
2022-08-25T22:07:48.046Z,100674.94
2022-08-25T22:10:17.701Z,100672.52
2022-08-25T22:12:48.175Z,100669.27
2022-08-25T22:15:17.858Z,100667.76
2022-08-25T22:17:48.107Z,100663.38
2022-08-25T22:20:18.043Z,100664.16
2022-08-25T22:22:46.262Z,100662.40
2022-08-25T22:25:14.615Z,100664.55
2022-08-25T22:27:42.815Z,100661.39
2022-08-25T22:30:11.411Z,100658.98
2022-08-25T22:32:39.272Z,100655.17
2022-08-25T22:35:08.331Z,100650.73
2022-08-25T22:37:37.593Z,100647.65
2022-08-25T22:40:06.476Z,100642.94
2022-08-25T22:42:34.503Z,100647.27
2022-08-25T22:45:02.527Z,100641.66
2022-08-25T22:47:31.377Z,100643.70
2022-08-25T22:49:59.615Z,100643.15
2022-08-25T22:52:33.374Z,100639.60
2022-08-25T22:55:03.174Z,100638.44
2022-08-25T22:57:31.818Z,100636.86
2022-08-25T22:59:59.771Z,100633.45
2022-08-25T23:02:28.306Z,100636.30
2022-08-25T23:05:00.875Z,100634.98
2022-08-25T23:07:29.718Z,100637.81
2022-08-25T23:10:03.293Z,100635.57
2022-08-25T23:12:32.798Z,100636.80
2022-08-25T23:15:01.254Z,100633.95
2022-08-25T23:17:31.848Z,100637.65
2022-08-25T23:20:00.069Z,100635.30
2022-08-25T23:22:28.915Z,100637.81
2022-08-25T23:24:56.993Z,100633.97
2022-08-25T23:27:24.948Z,100636.06
2022-08-25T23:29:52.878Z,100637.23
2022-08-25T23:32:22.351Z,100638.60
2022-08-25T23:34:50.360Z,100621.86
2022-08-25T23:37:18.965Z,100643.05
2022-08-25T23:39:49.494Z,100644.66
2022-08-25T23:42:20.146Z,100639.04
2022-08-25T23:44:49.753Z,100641.09
2022-08-25T23:47:18.907Z,100635.15
2022-08-25T23:49:48.655Z,100632.52
2022-08-25T23:52:17.836Z,100632.23
2022-08-25T23:54:46.639Z,100632.53
2022-08-25T23:57:15.076Z,100631.35
2022-08-25T23:59:43.446Z,100627.89
